createdAt,value
2022-10-29T00:00:56.339Z,3.65
2022-10-29T00:03:23.887Z,3.20
2022-10-29T00:05:57.550Z,3.25
2022-10-29T00:08:24.781Z,3.30
2022-10-29T00:10:51.567Z,3.35
2022-10-29T00:13:18.307Z,3.15
2022-10-29T00:15:44.946Z,3.92
2022-10-29T00:18:11.585Z,3.63
2022-10-29T00:20:38.203Z,2.92
2022-10-29T00:23:04.875Z,3.13
2022-10-29T00:25:31.551Z,3.35
2022-10-29T00:27:58.241Z,3.20
2022-10-29T00:30:24.855Z,3.78
2022-10-29T00:32:51.534Z,3.22
2022-10-29T00:35:18.272Z,3.03
2022-10-29T00:37:44.922Z,3.00
2022-10-29T00:40:12.189Z,3.15
2022-10-29T00:42:38.805Z,2.80
2022-10-29T00:45:06.178Z,3.20
2022-10-29T00:47:36.919Z,3.00
2022-10-29T00:50:09.380Z,3.22
2022-10-29T00:52:40.662Z,3.25
2022-10-29T00:55:10.598Z,3.85
2022-10-29T00:57:41.532Z,2.78
2022-10-29T01:00:08.981Z,2.88
2022-10-29T01:02:38.111Z,3.33
2022-10-29T01:05:06.049Z,2.83
2022-10-29T01:07:32.940Z,2.95
2022-10-29T01:09:59.688Z,2.92
2022-10-29T01:12:36.957Z,3.42
2022-10-29T01:15:28.388Z,3.40
2022-10-29T01:18:16.426Z,2.97
2022-10-29T01:21:13.331Z,3.10
2022-10-29T01:23:42.747Z,3.65
2022-10-29T01:26:27.596Z,3.00
2022-10-29T01:29:09.553Z,3.17
2022-10-29T01:31:50.960Z,2.42
2022-10-29T01:34:33.570Z,2.50
2022-10-29T01:37:08.029Z,3.35
2022-10-29T01:39:42.075Z,3.50
2022-10-29T01:42:15.215Z,3.13
2022-10-29T01:44:51.193Z,2.75
2022-10-29T01:47:22.801Z,2.65
2022-10-29T01:49:57.789Z,2.90
2022-10-29T01:52:27.383Z,2.75
2022-10-29T01:54:54.521Z,3.33
2022-10-29T01:57:34.077Z,3.25
2022-10-29T02:00:07.002Z,3.75
2022-10-29T02:03:02.484Z,3.25
2022-10-29T02:05:53.308Z,2.83
2022-10-29T02:08:53.202Z,3.30
2022-10-29T02:11:29.769Z,3.20
2022-10-29T02:14:07.756Z,3.05
2022-10-29T02:16:34.524Z,2.92
2022-10-29T02:19:01.373Z,3.13
2022-10-29T02:21:28.110Z,2.60
2022-10-29T02:23:54.788Z,3.25
2022-10-29T02:26:21.819Z,3.20
2022-10-29T02:28:48.517Z,3.17
2022-10-29T02:31:15.503Z,2.83
2022-10-29T02:33:42.116Z,2.70
2022-10-29T02:36:09.111Z,2.85
2022-10-29T02:38:35.748Z,2.90
2022-10-29T02:41:02.376Z,2.92
2022-10-29T02:43:28.986Z,2.70
2022-10-29T02:46:15.954Z,2.65
2022-10-29T02:48:43.048Z,2.67
2022-10-29T02:51:10.251Z,2.70
2022-10-29T02:53:37.200Z,2.35
2022-10-29T02:56:04.769Z,2.90
2022-10-29T02:58:31.909Z,3.28
2022-10-29T03:00:58.545Z,2.63
2022-10-29T03:03:25.284Z,2.50
2022-10-29T03:05:52.555Z,2.50
2022-10-29T03:08:19.516Z,2.63
2022-10-29T03:10:46.223Z,2.95
2022-10-29T03:13:13.041Z,2.72
2022-10-29T03:15:39.697Z,2.55
2022-10-29T03:18:06.321Z,2.70
2022-10-29T03:20:32.987Z,2.30
2022-10-29T03:22:59.600Z,2.67
2022-10-29T03:25:26.628Z,2.45
2022-10-29T03:27:53.448Z,2.85
2022-10-29T03:30:20.242Z,2.97
2022-10-29T03:32:48.012Z,3.25
2022-10-29T03:35:16.097Z,3.38
2022-10-29T03:37:43.094Z,3.72
2022-10-29T03:40:10.139Z,4.25
2022-10-29T03:42:38.329Z,4.25
2022-10-29T03:45:05.215Z,4.20
2022-10-29T03:47:33.487Z,4.88
2022-10-29T03:50:00.286Z,4.35
2022-10-29T03:52:27.075Z,4.85
2022-10-29T03:54:53.771Z,3.67
2022-10-29T03:57:20.456Z,4.90
2022-10-29T03:59:51.508Z,4.25
2022-10-29T04:02:19.649Z,4.80
2022-10-29T04:04:46.459Z,3.33
2022-10-29T04:07:13.388Z,3.30
2022-10-29T04:09:40.132Z,3.90
2022-10-29T04:12:07.404Z,4.07
2022-10-29T04:14:34.971Z,3.78
2022-10-29T04:17:01.738Z,4.38
2022-10-29T04:19:28.436Z,4.10
2022-10-29T04:30:15.212Z,4.50
2022-10-29T04:32:41.829Z,4.20
2022-10-29T04:35:08.632Z,4.55
2022-10-29T04:37:35.264Z,4.05
2022-10-29T04:40:01.926Z,3.97
2022-10-29T04:42:28.616Z,3.70
2022-10-29T04:44:55.248Z,3.70
2022-10-29T04:47:21.915Z,4.75
2022-10-29T04:49:48.528Z,4.13
2022-10-29T04:52:15.207Z,3.83
2022-10-29T04:54:41.829Z,3.90
2022-10-29T04:57:08.506Z,4.63
2022-10-29T04:59:35.134Z,4.20
2022-10-29T05:02:01.748Z,3.92
2022-10-29T05:04:29.457Z,4.38
2022-10-29T05:06:56.139Z,4.13
2022-10-29T05:09:22.785Z,4.75
2022-10-29T05:11:49.568Z,4.55
2022-10-29T05:14:16.192Z,5.38
2022-10-29T05:16:42.873Z,4.63
2022-10-29T05:19:09.616Z,4.93
2022-10-29T05:21:36.235Z,4.00
2022-10-29T05:24:02.912Z,4.03
2022-10-29T05:26:32.574Z,3.95
2022-10-29T05:28:59.288Z,4.15
2022-10-29T05:31:26.003Z,4.25
2022-10-29T05:33:55.573Z,4.85
2022-10-29T05:36:22.896Z,4.18
2022-10-29T05:38:49.561Z,3.90
2022-10-29T05:41:16.365Z,3.65
2022-10-29T05:43:43.174Z,3.90
2022-10-29T05:46:09.768Z,4.50
2022-10-29T05:48:36.453Z,4.05
2022-10-29T05:51:04.426Z,3.97
2022-10-29T05:53:31.196Z,3.95
2022-10-29T05:55:59.029Z,3.75
2022-10-29T05:58:25.736Z,3.72
2022-10-29T06:00:52.387Z,4.10
2022-10-29T06:03:21.009Z,3.92
2022-10-29T06:05:48.998Z,3.78
2022-10-29T06:08:15.942Z,4.15
2022-10-29T06:10:42.597Z,3.58
2022-10-29T06:13:11.505Z,4.03
2022-10-29T06:15:38.192Z,4.40
2022-10-29T06:18:04.876Z,4.40
2022-10-29T06:20:31.528Z,4.32
2022-10-29T06:22:59.361Z,3.95
2022-10-29T06:25:26.998Z,4.47
2022-10-29T06:28:05.594Z,4.00
2022-10-29T06:30:33.860Z,4.63
2022-10-29T06:33:00.854Z,4.57
2022-10-29T06:35:28.342Z,3.28
2022-10-29T06:37:55.914Z,3.97
2022-10-29T06:40:23.179Z,3.97
2022-10-29T06:42:49.974Z,3.30
2022-10-29T06:45:16.859Z,3.05
2022-10-29T06:47:45.467Z,3.70
2022-10-29T06:50:13.778Z,3.75
2022-10-29T06:52:40.446Z,3.25
2022-10-29T06:55:08.216Z,3.20
2022-10-29T06:57:35.441Z,3.55
2022-10-29T07:00:05.727Z,3.50
2022-10-29T07:02:35.640Z,3.20
2022-10-29T07:05:02.416Z,3.95
2022-10-29T07:07:29.600Z,3.55
2022-10-29T07:09:56.521Z,4.03
2022-10-29T07:12:23.231Z,4.88
2022-10-29T07:14:49.884Z,3.60
2022-10-29T07:17:16.501Z,5.32
2022-10-29T07:19:43.199Z,4.85
2022-10-29T07:22:09.869Z,6.78
2022-10-29T07:24:36.501Z,5.65
2022-10-29T07:27:03.192Z,6.10
2022-10-29T07:29:29.876Z,5.68
2022-10-29T07:31:56.558Z,6.18
2022-10-29T07:34:23.206Z,5.32
2022-10-29T07:36:49.907Z,5.50
2022-10-29T07:39:17.252Z,5.97
2022-10-29T07:41:43.970Z,5.40
2022-10-29T07:44:11.064Z,5.70
2022-10-29T07:46:37.737Z,5.13
2022-10-29T07:49:04.528Z,4.93
2022-10-29T07:51:31.257Z,4.28
2022-10-29T07:53:57.929Z,4.60
2022-10-29T07:56:24.659Z,4.13
2022-10-29T07:58:51.321Z,4.72
2022-10-29T08:01:18.105Z,3.72
2022-10-29T08:03:45.014Z,3.75
2022-10-29T08:06:11.801Z,4.10
2022-10-29T08:08:38.481Z,4.68
2022-10-29T08:11:05.645Z,4.40
2022-10-29T08:13:32.662Z,4.22
2022-10-29T08:15:59.348Z,3.72
2022-10-29T08:18:26.444Z,3.72
2022-10-29T08:20:53.241Z,4.18
2022-10-29T08:23:19.974Z,3.80
2022-10-29T08:25:46.727Z,3.78
2022-10-29T08:28:15.402Z,3.65
2022-10-29T08:30:44.044Z,3.47
2022-10-29T08:33:11.265Z,4.40
2022-10-29T08:35:38.208Z,3.97
2022-10-29T08:38:04.989Z,3.85
2022-10-29T08:41:06.877Z,4.50
2022-10-29T08:43:44.535Z,4.22
2022-10-29T08:46:25.060Z,4.25
2022-10-29T08:48:57.466Z,4.18
2022-10-29T08:51:34.333Z,4.32
2022-10-29T08:54:25.581Z,4.03
2022-10-29T08:56:59.320Z,3.80
2022-10-29T08:59:31.612Z,4.32
2022-10-29T09:01:58.558Z,4.32
2022-10-29T09:04:28.736Z,4.20
2022-10-29T09:07:04.685Z,4.95
2022-10-29T09:09:35.091Z,3.90
2022-10-29T09:12:30.354Z,4.18
2022-10-29T09:15:36.551Z,4.47
2022-10-29T09:18:35.519Z,3.55
2022-10-29T09:21:12.068Z,3.70
2022-10-29T09:24:00.624Z,4.20
2022-10-29T09:26:38.668Z,4.22
2022-10-29T09:29:45.970Z,4.20
2022-10-29T09:32:22.186Z,3.65
2022-10-29T09:34:56.519Z,3.53
2022-10-29T09:37:44.018Z,3.55
2022-10-29T09:40:28.545Z,3.25
2022-10-29T09:42:55.827Z,3.47
2022-10-29T09:45:30.201Z,2.85
2022-10-29T09:48:16.028Z,2.35
2022-10-29T09:51:00.809Z,2.83
2022-10-29T09:53:27.605Z,3.15
2022-10-29T09:55:54.706Z,2.47
2022-10-29T09:58:27.040Z,2.83
2022-10-29T10:00:55.114Z,2.80
2022-10-29T10:03:28.863Z,2.90
2022-10-29T10:06:10.313Z,2.58
2022-10-29T10:08:58.786Z,2.60
2022-10-29T10:11:30.227Z,3.05
2022-10-29T10:13:58.950Z,3.08
2022-10-29T10:16:32.461Z,2.67
2022-10-29T10:18:59.393Z,2.60
2022-10-29T10:21:29.133Z,2.60
2022-10-29T10:24:00.140Z,2.70
2022-10-29T10:26:39.295Z,2.85
2022-10-29T10:29:19.207Z,4.10
2022-10-29T10:31:49.757Z,3.30
2022-10-29T10:34:23.927Z,5.90
2022-10-29T10:37:07.200Z,2.88
2022-10-29T10:39:41.788Z,2.67
2022-10-29T10:42:36.939Z,2.70
2022-10-29T10:45:14.573Z,2.90
2022-10-29T10:47:45.916Z,2.90
2022-10-29T10:50:20.458Z,2.85
2022-10-29T10:52:47.616Z,2.30
2022-10-29T10:55:31.329Z,2.83
2022-10-29T10:58:20.176Z,2.25
2022-10-29T11:01:23.149Z,3.03
2022-10-29T11:04:05.183Z,2.65
2022-10-29T11:06:36.298Z,2.85
2022-10-29T11:09:02.937Z,2.80
2022-10-29T11:11:34.764Z,2.53
2022-10-29T11:14:09.961Z,2.40
2022-10-29T11:16:47.137Z,2.85
2022-10-29T11:19:16.751Z,2.60
2022-10-29T11:21:49.440Z,2.50
2022-10-29T11:24:39.754Z,2.50
2022-10-29T11:27:33.759Z,2.30
2022-10-29T11:30:09.679Z,2.42
2022-10-29T11:33:06.276Z,2.22
2022-10-29T11:35:45.792Z,2.58
2022-10-29T11:38:27.648Z,2.20
2022-10-29T11:41:07.643Z,2.72
2022-10-29T11:43:34.425Z,2.40
2022-10-29T11:46:43.318Z,2.60
2022-10-29T11:49:25.109Z,2.97
2022-10-29T11:52:14.972Z,2.70
2022-10-29T11:54:47.424Z,2.80
2022-10-29T11:57:20.018Z,2.65
2022-10-29T12:00:04.848Z,2.88
2022-10-29T12:02:39.168Z,2.80
2022-10-29T12:05:08.611Z,3.13
2022-10-29T12:07:56.509Z,2.10
2022-10-29T12:10:44.877Z,2.33
2022-10-29T12:13:28.979Z,2.97
2022-10-29T12:15:58.719Z,2.20
2022-10-29T12:18:41.612Z,2.58
2022-10-29T12:21:08.455Z,2.80
2022-10-29T12:23:54.710Z,2.40
2022-10-29T12:26:33.656Z,2.70
2022-10-29T12:29:18.021Z,2.75
2022-10-29T12:32:10.611Z,2.33
2022-10-29T12:35:10.321Z,2.75
2022-10-29T12:38:15.955Z,2.78
2022-10-29T12:40:45.145Z,2.40
2022-10-29T12:43:23.529Z,2.67
2022-10-29T12:46:20.131Z,3.38
2022-10-29T12:49:08.044Z,2.83
2022-10-29T12:51:58.891Z,3.20
2022-10-29T12:54:28.318Z,3.70
2022-10-29T12:56:57.286Z,3.55
2022-10-29T12:59:23.944Z,2.83
2022-10-29T13:02:12.131Z,3.00
2022-10-29T13:04:38.600Z,5.82
2022-10-29T13:07:23.233Z,4.80
2022-10-29T13:10:27.034Z,4.45
2022-10-29T13:12:59.600Z,3.90
2022-10-29T13:15:37.003Z,3.67
2022-10-29T13:18:27.647Z,3.72
2022-10-29T13:20:55.440Z,3.38
2022-10-29T13:23:22.039Z,3.10
2022-10-29T13:25:55.217Z,3.92
2022-10-29T13:28:21.813Z,4.57
2022-10-29T13:30:53.890Z,3.30
2022-10-29T13:33:23.356Z,2.90
2022-10-29T13:36:00.427Z,3.10
2022-10-29T13:39:05.303Z,3.38
2022-10-29T13:41:44.569Z,3.15
2022-10-29T13:44:11.285Z,3.30
2022-10-29T13:47:00.444Z,3.03
2022-10-29T13:49:38.183Z,3.17
2022-10-29T13:52:19.033Z,3.25
2022-10-29T13:55:02.134Z,3.20
2022-10-29T13:57:51.932Z,3.40
2022-10-29T14:00:20.373Z,2.72
2022-10-29T14:03:14.873Z,3.47
2022-10-29T14:05:47.010Z,3.63
2022-10-29T14:09:12.001Z,3.60
2022-10-29T14:11:42.672Z,4.82
2022-10-29T14:14:29.371Z,4.70
2022-10-29T14:17:16.527Z,4.47
2022-10-29T14:19:48.739Z,4.38
2022-10-29T14:22:39.012Z,5.10
2022-10-29T14:25:24.207Z,4.43
2022-10-29T14:28:17.514Z,4.50
2022-10-29T14:30:46.502Z,4.85
2022-10-29T14:33:19.346Z,3.92
2022-10-29T14:35:46.864Z,4.57
2022-10-29T14:38:14.879Z,3.88
2022-10-29T14:40:45.414Z,4.00
2022-10-29T14:43:22.937Z,3.80
2022-10-29T14:45:49.837Z,4.10
2022-10-29T14:48:18.651Z,4.13
2022-10-29T14:50:49.507Z,4.90
2022-10-29T14:53:27.480Z,4.80
2022-10-29T14:55:54.378Z,4.28
2022-10-29T15:01:00.493Z,3.92
2022-10-29T15:03:31.254Z,4.50
2022-10-29T15:06:20.055Z,3.58
2022-10-29T15:08:57.080Z,3.80
2022-10-29T15:11:34.471Z,3.85
2022-10-29T15:14:02.655Z,3.58
2022-10-29T15:16:30.748Z,3.70
2022-10-29T15:18:58.700Z,3.42
2022-10-29T15:21:33.041Z,3.50
2022-10-29T15:24:06.507Z,4.35
2022-10-29T15:26:35.800Z,3.50
2022-10-29T15:29:10.554Z,3.72
2022-10-29T15:31:49.678Z,3.90
2022-10-29T15:34:21.406Z,4.30
2022-10-29T15:36:51.062Z,4.55
2022-10-29T15:39:29.335Z,3.95
2022-10-29T15:41:59.488Z,4.88
2022-10-29T15:44:26.138Z,4.45
2022-10-29T15:46:58.806Z,4.68
2022-10-29T15:49:32.452Z,5.60
2022-10-29T15:52:00.800Z,5.70
2022-10-29T15:54:28.540Z,5.78
2022-10-29T15:56:55.318Z,5.15
2022-10-29T15:59:25.757Z,6.22
2022-10-29T16:01:52.747Z,5.63
2022-10-29T16:04:19.645Z,5.70
2022-10-29T16:06:46.385Z,5.28
2022-10-29T16:09:20.761Z,5.80
2022-10-29T16:11:48.373Z,6.40
2022-10-29T16:14:15.162Z,6.97
2022-10-29T16:16:41.925Z,9.10
2022-10-29T16:19:08.722Z,6.10
2022-10-29T16:21:35.658Z,6.88
2022-10-29T16:24:02.408Z,6.50
2022-10-29T16:26:29.631Z,6.38
2022-10-29T16:28:56.671Z,5.65
2022-10-29T16:31:28.501Z,5.32
2022-10-29T16:33:57.946Z,4.40
2022-10-29T16:36:25.056Z,4.57
2022-10-29T16:38:51.762Z,4.68
2022-10-29T16:41:20.052Z,3.55
2022-10-29T16:43:47.611Z,4.15
2022-10-29T16:46:15.000Z,4.28
2022-10-29T16:48:42.181Z,4.10
2022-10-29T16:51:09.097Z,4.20
2022-10-29T16:53:35.899Z,4.28
2022-10-29T16:56:03.429Z,4.43
2022-10-29T16:58:30.495Z,4.63
2022-10-29T17:01:05.521Z,6.22
2022-10-29T17:03:33.319Z,6.28
2022-10-29T17:06:08.385Z,6.85
2022-10-29T17:08:36.840Z,6.32
2022-10-29T17:11:06.457Z,6.18
2022-10-29T17:13:34.186Z,5.30
2022-10-29T17:16:00.985Z,5.32
2022-10-29T17:18:27.825Z,5.00
2022-10-29T17:20:58.766Z,6.95
2022-10-29T17:23:26.121Z,6.70
2022-10-29T17:25:57.575Z,6.40
2022-10-29T17:28:26.286Z,6.03
2022-10-29T17:30:52.949Z,5.07
2022-10-29T17:33:20.197Z,5.20
2022-10-29T17:35:47.444Z,5.20
2022-10-29T17:38:14.320Z,5.93
2022-10-29T17:40:43.752Z,6.40
2022-10-29T17:43:10.649Z,6.40
2022-10-29T17:45:37.845Z,6.25
2022-10-29T17:48:04.997Z,6.30
2022-10-29T17:50:31.998Z,7.40
2022-10-29T17:52:58.984Z,11.35
2022-10-29T17:55:25.931Z,8.73
2022-10-29T17:57:52.985Z,7.85
2022-10-29T18:00:19.761Z,7.50
2022-10-29T18:02:50.705Z,6.55
2022-10-29T18:05:18.197Z,6.95
2022-10-29T18:07:44.991Z,5.95
2022-10-29T18:10:11.831Z,6.30
2022-10-29T18:12:38.769Z,5.82
2022-10-29T18:15:05.903Z,5.55
2022-10-29T18:17:33.938Z,5.75
2022-10-29T18:20:00.760Z,5.35
2022-10-29T18:22:28.101Z,6.70
2022-10-29T18:24:55.033Z,7.53
2022-10-29T18:27:21.992Z,8.25
2022-10-29T18:29:48.770Z,10.48
2022-10-29T18:32:16.041Z,10.90
2022-10-29T18:34:43.056Z,10.07
2022-10-29T18:37:10.260Z,9.55
2022-10-29T18:39:37.099Z,9.05
2022-10-29T18:42:04.051Z,8.65
2022-10-29T18:44:31.144Z,9.20
2022-10-29T18:46:58.149Z,9.82
2022-10-29T18:49:24.989Z,12.13
2022-10-29T18:51:53.453Z,19.45
2022-10-29T18:54:20.428Z,20.15
2022-10-29T18:56:47.278Z,18.30
2022-10-29T18:59:14.177Z,16.15
2022-10-29T19:01:41.614Z,13.15
2022-10-29T19:04:11.453Z,20.30
2022-10-29T19:06:38.451Z,19.15
2022-10-29T19:09:08.605Z,18.63
2022-10-29T19:11:36.193Z,16.48
2022-10-29T19:14:06.172Z,19.85
2022-10-29T19:16:33.598Z,22.52
2022-10-29T19:21:36.548Z,17.55
2022-10-29T19:24:04.587Z,17.92
2022-10-29T19:26:33.572Z,25.25
2022-10-29T19:29:02.415Z,29.00
2022-10-29T19:31:31.356Z,29.48
2022-10-29T19:34:00.826Z,25.38
2022-10-29T19:36:29.397Z,33.03
2022-10-29T19:38:56.356Z,26.10
2022-10-29T19:41:23.608Z,20.50
2022-10-29T19:43:50.537Z,16.80
2022-10-29T19:46:24.296Z,10.90
2022-10-29T19:48:52.621Z,12.15
2022-10-29T19:51:20.637Z,11.10
2022-10-29T19:53:48.141Z,9.75
2022-10-29T19:56:16.065Z,9.05
2022-10-29T19:58:43.122Z,9.57
2022-10-29T20:01:18.419Z,10.98
2022-10-29T20:03:46.419Z,13.82
2022-10-29T20:06:13.761Z,11.23
2022-10-29T20:08:40.485Z,10.52
2022-10-29T20:11:07.559Z,13.00
2022-10-29T20:13:34.715Z,13.43
2022-10-29T20:16:10.329Z,16.63
2022-10-29T20:18:38.263Z,15.57
2022-10-29T20:23:37.559Z,8.68
2022-10-29T20:26:04.657Z,8.23
2022-10-29T20:28:31.420Z,7.15
2022-10-29T20:31:24.733Z,6.55
2022-10-29T20:33:52.924Z,5.60
2022-10-29T20:36:20.690Z,7.60
2022-10-29T20:38:51.967Z,8.95
2022-10-29T20:41:19.467Z,7.82
2022-10-29T20:43:50.517Z,7.93
2022-10-29T20:46:17.192Z,9.10
2022-10-29T20:48:43.856Z,9.38
2022-10-29T20:51:12.084Z,8.27
2022-10-29T20:53:39.033Z,8.07
2022-10-29T20:56:08.204Z,7.15
2022-10-29T20:58:37.763Z,8.18
2022-10-29T21:01:08.850Z,7.00
2022-10-29T21:03:36.126Z,7.85
2022-10-29T21:06:04.830Z,10.23
2022-10-29T21:08:31.738Z,8.63
2022-10-29T21:11:00.067Z,8.70
2022-10-29T21:13:27.787Z,8.98
2022-10-29T21:15:55.138Z,8.35
2022-10-29T21:18:22.374Z,8.90
2022-10-29T21:20:49.496Z,9.30
2022-10-29T21:23:19.917Z,8.80
2022-10-29T21:25:53.942Z,8.75
2022-10-29T21:28:20.806Z,7.75
2022-10-29T21:30:47.539Z,8.23
2022-10-29T21:33:14.201Z,8.10
2022-10-29T21:35:41.039Z,8.02
2022-10-29T21:38:07.894Z,7.90
2022-10-29T21:40:34.589Z,7.32
2022-10-29T21:43:01.278Z,7.97
2022-10-29T21:45:28.009Z,7.03
2022-10-29T21:47:54.664Z,7.05
2022-10-29T21:50:21.345Z,6.90
2022-10-29T21:52:48.045Z,6.97
2022-10-29T21:55:14.938Z,7.18
2022-10-29T21:57:44.843Z,8.63
2022-10-29T22:00:14.104Z,9.32
2022-10-29T22:02:40.833Z,9.88
2022-10-29T22:05:08.131Z,10.18
2022-10-29T22:07:35.001Z,16.08
2022-10-29T22:10:02.066Z,15.57
2022-10-29T22:12:28.874Z,13.88
2022-10-29T22:14:55.788Z,15.25
2022-10-29T22:17:22.431Z,13.70
2022-10-29T22:19:49.923Z,10.55
2022-10-29T22:22:16.763Z,10.00
2022-10-29T22:24:43.436Z,8.15
2022-10-29T22:27:10.310Z,7.78
2022-10-29T22:29:36.968Z,7.38
2022-10-29T22:32:05.565Z,7.70
2022-10-29T22:34:32.293Z,7.43
2022-10-29T22:36:58.985Z,8.02
2022-10-29T22:39:26.222Z,7.70
2022-10-29T22:41:53.266Z,9.63
2022-10-29T22:44:19.978Z,8.38
2022-10-29T22:46:46.698Z,8.57
2022-10-29T22:49:13.427Z,8.25
2022-10-29T22:51:40.077Z,7.72
2022-10-29T22:54:06.956Z,6.40
2022-10-29T22:56:36.167Z,6.15
2022-10-29T22:59:04.962Z,6.20
2022-10-29T23:01:38.667Z,5.43
2022-10-29T23:04:08.876Z,5.07
2022-10-29T23:06:36.639Z,5.50
2022-10-29T23:09:03.422Z,5.57
2022-10-29T23:11:32.201Z,4.63
2022-10-29T23:14:00.722Z,5.05
2022-10-29T23:16:30.029Z,4.78
2022-10-29T23:18:59.781Z,5.00
2022-10-29T23:21:26.881Z,5.05
2022-10-29T23:23:54.503Z,5.60
2022-10-29T23:26:23.131Z,5.05
2022-10-29T23:28:50.572Z,5.43
2022-10-29T23:31:22.918Z,5.10
2022-10-29T23:33:51.842Z,4.75
2022-10-29T23:36:20.406Z,4.72
2022-10-29T23:38:47.333Z,5.60
2022-10-29T23:41:14.095Z,6.47
2022-10-29T23:43:40.853Z,5.90
2022-10-29T23:46:07.559Z,6.20
2022-10-29T23:48:34.315Z,4.97
2022-10-29T23:51:01.035Z,5.13
2022-10-29T23:53:27.703Z,5.47
2022-10-29T23:55:54.396Z,5.05
2022-10-29T23:58:21.312Z,4.90
